sensor_id;sensor_type;location;lat;lon;timestamp;P1;durP1;ratioP1;P2;durP2;ratioP2
36651;SDS011;53334;51.976;20.144;2023-02-15T01:07:18;5.97;;;3.17;;
36651;SDS011;53334;51.976;20.144;2023-02-15T01:09:52;3.78;;;2.65;;
36651;SDS011;53334;51.976;20.144;2023-02-15T01:12:26;2.83;;;2.45;;
36651;SDS011;53334;51.976;20.144;2023-02-15T01:15:00;5.45;;;2.47;;
36651;SDS011;53334;51.976;20.144;2023-02-15T01:20:08;4.28;;;2.40;;
36651;SDS011;53334;51.976;20.144;2023-02-15T01:22:44;3.63;;;2.58;;
36651;SDS011;53334;51.976;20.144;2023-02-15T01:25:18;4.78;;;2.60;;
36651;SDS011;53334;51.976;20.144;2023-02-15T01:27:52;4.07;;;2.65;;
36651;SDS011;53334;51.976;20.144;2023-02-15T01:33:00;3.90;;;2.30;;
36651;SDS011;53334;51.976;20.144;2023-02-15T01:35:36;2.42;;;2.22;;
36651;SDS011;53334;51.976;20.144;2023-02-15T01:38:11;3.78;;;2.60;;
36651;SDS011;53334;51.976;20.144;2023-02-15T01:40:45;5.03;;;2.53;;
36651;SDS011;53334;51.976;20.144;2023-02-15T01:45:53;3.38;;;2.83;;
36651;SDS011;53334;51.976;20.144;2023-02-15T01:48:27;2.95;;;2.63;;
36651;SDS011;53334;51.976;20.144;2023-02-15T01:53:37;3.03;;;2.67;;
36651;SDS011;53334;51.976;20.144;2023-02-15T01:56:17;2.03;;;1.88;;
36651;SDS011;53334;51.976;20.144;2023-02-15T01:58:54;2.72;;;2.50;;
36651;SDS011;53334;51.976;20.144;2023-02-15T02:01:30;4.28;;;2.83;;
36651;SDS011;53334;51.976;20.144;2023-02-15T02:04:06;3.05;;;2.42;;
36651;SDS011;53334;51.976;20.144;2023-02-15T02:06:44;3.58;;;2.70;;
36651;SDS011;53334;51.976;20.144;2023-02-15T02:09:22;4.50;;;2.45;;
36651;SDS011;53334;51.976;20.144;2023-02-15T02:11:56;8.20;;;2.20;;
36651;SDS011;53334;51.976;20.144;2023-02-15T02:14:31;4.63;;;2.72;;
36651;SDS011;53334;51.976;20.144;2023-02-15T02:17:09;4.47;;;1.98;;
36651;SDS011;53334;51.976;20.144;2023-02-15T02:20:05;2.38;;;2.17;;
36651;SDS011;53334;51.976;20.144;2023-02-15T02:23:00;3.28;;;2.30;;
36651;SDS011;53334;51.976;20.144;2023-02-15T02:26:10;4.60;;;2.70;;
36651;SDS011;53334;51.976;20.144;2023-02-15T02:29:32;3.38;;;2.58;;
36651;SDS011;53334;51.976;20.144;2023-02-15T02:35:52;6.90;;;2.65;;
36651;SDS011;53334;51.976;20.144;2023-02-15T02:38:37;7.60;;;2.42;;
36651;SDS011;53334;51.976;20.144;2023-02-15T02:41:18;3.70;;;2.58;;
36651;SDS011;53334;51.976;20.144;2023-02-15T02:44:01;5.03;;;2.10;;
36651;SDS011;53334;51.976;20.144;2023-02-15T02:46:46;1.75;;;1.63;;
36651;SDS011;53334;51.976;20.144;2023-02-15T02:49:29;3.17;;;1.90;;
36651;SDS011;53334;51.976;20.144;2023-02-15T02:52:07;1.92;;;1.80;;
36651;SDS011;53334;51.976;20.144;2023-02-15T02:54:56;2.00;;;1.83;;
36651;SDS011;53334;51.976;20.144;2023-02-15T02:57:30;2.63;;;2.20;;
36651;SDS011;53334;51.976;20.144;2023-02-15T03:00:07;2.35;;;2.15;;
36651;SDS011;53334;51.976;20.144;2023-02-15T03:02:43;2.47;;;2.05;;
36651;SDS011;53334;51.976;20.144;2023-02-15T03:05:21;5.15;;;2.65;;
36651;SDS011;53334;51.976;20.144;2023-02-15T03:08:00;3.80;;;2.60;;
36651;SDS011;53334;51.976;20.144;2023-02-15T03:10:38;3.75;;;2.60;;
36651;SDS011;53334;51.976;20.144;2023-02-15T03:13:13;3.03;;;2.40;;
36651;SDS011;53334;51.976;20.144;2023-02-15T03:15:47;3.50;;;2.83;;
36651;SDS011;53334;51.976;20.144;2023-02-15T03:18:42;2.25;;;2.05;;
36651;SDS011;53334;51.976;20.144;2023-02-15T03:21:31;2.55;;;2.35;;
36651;SDS011;53334;51.976;20.144;2023-02-15T03:24:12;6.38;;;2.47;;
36651;SDS011;53334;51.976;20.144;2023-02-15T03:26:51;3.53;;;2.60;;
36651;SDS011;53334;51.976;20.144;2023-02-15T03:29:27;5.53;;;2.70;;
36651;SDS011;53334;51.976;20.144;2023-02-15T03:32:03;2.80;;;2.50;;
36651;SDS011;53334;51.976;20.144;2023-02-15T03:34:41;4.85;;;2.22;;
36651;SDS011;53334;51.976;20.144;2023-02-15T03:37:17;3.97;;;2.33;;
36651;SDS011;53334;51.976;20.144;2023-02-15T03:39:57;4.78;;;2.60;;
36651;SDS011;53334;51.976;20.144;2023-02-15T03:42:58;3.95;;;2.83;;
36651;SDS011;53334;51.976;20.144;2023-02-15T03:45:36;4.30;;;2.28;;
36651;SDS011;53334;51.976;20.144;2023-02-15T03:48:27;6.00;;;2.65;;
36651;SDS011;53334;51.976;20.144;2023-02-15T03:51:05;3.97;;;3.20;;
36651;SDS011;53334;51.976;20.144;2023-02-15T03:53:59;3.90;;;2.63;;
36651;SDS011;53334;51.976;20.144;2023-02-15T03:56:37;3.28;;;2.20;;
36651;SDS011;53334;51.976;20.144;2023-02-15T03:59:13;5.55;;;2.72;;
36651;SDS011;53334;51.976;20.144;2023-02-15T04:02:05;3.95;;;2.53;;
36651;SDS011;53334;51.976;20.144;2023-02-15T04:04:47;5.85;;;3.20;;
36651;SDS011;53334;51.976;20.144;2023-02-15T04:07:21;4.00;;;2.33;;
36651;SDS011;53334;51.976;20.144;2023-02-15T04:12:48;4.47;;;2.92;;
36651;SDS011;53334;51.976;20.144;2023-02-15T04:15:21;2.90;;;2.40;;
36651;SDS011;53334;51.976;20.144;2023-02-15T04:18:13;3.08;;;2.42;;
36651;SDS011;53334;51.976;20.144;2023-02-15T04:20:47;3.15;;;2.75;;
36651;SDS011;53334;51.976;20.144;2023-02-15T04:23:38;2.75;;;2.55;;
36651;SDS011;53334;51.976;20.144;2023-02-15T04:26:29;4.70;;;2.72;;
36651;SDS011;53334;51.976;20.144;2023-02-15T04:31:38;3.88;;;2.60;;
36651;SDS011;53334;51.976;20.144;2023-02-15T04:34:12;4.07;;;2.83;;
36651;SDS011;53334;51.976;20.144;2023-02-15T04:36:46;6.88;;;3.53;;
36651;SDS011;53334;51.976;20.144;2023-02-15T04:41:53;3.30;;;2.88;;
36651;SDS011;53334;51.976;20.144;2023-02-15T04:47:01;2.63;;;2.42;;
36651;SDS011;53334;51.976;20.144;2023-02-15T04:52:09;3.53;;;2.50;;
36651;SDS011;53334;51.976;20.144;2023-02-15T04:54:43;5.63;;;2.60;;
36651;SDS011;53334;51.976;20.144;2023-02-15T04:57:17;3.47;;;2.58;;
36651;SDS011;53334;51.976;20.144;2023-02-15T05:02:26;3.83;;;2.72;;
36651;SDS011;53334;51.976;20.144;2023-02-15T05:07:33;4.07;;;3.17;;
36651;SDS011;53334;51.976;20.144;2023-02-15T05:12:41;3.15;;;2.72;;
36651;SDS011;53334;51.976;20.144;2023-02-15T05:17:50;4.07;;;2.58;;
36651;SDS011;53334;51.976;20.144;2023-02-15T05:22:57;4.63;;;3.10;;
36651;SDS011;53334;51.976;20.144;2023-02-15T05:28:22;3.55;;;2.95;;
36651;SDS011;53334;51.976;20.144;2023-02-15T05:31:01;3.08;;;2.60;;
36651;SDS011;53334;51.976;20.144;2023-02-15T05:33:37;5.72;;;3.10;;
36651;SDS011;53334;51.976;20.144;2023-02-15T05:36:11;5.32;;;3.50;;
36651;SDS011;53334;51.976;20.144;2023-02-15T05:38:45;3.83;;;3.30;;
36651;SDS011;53334;51.976;20.144;2023-02-15T05:43:54;6.07;;;3.17;;
36651;SDS011;53334;51.976;20.144;2023-02-15T05:46:30;5.07;;;3.53;;
36651;SDS011;53334;51.976;20.144;2023-02-15T05:49:04;3.47;;;3.17;;
36651;SDS011;53334;51.976;20.144;2023-02-15T05:51:38;4.63;;;3.20;;
36651;SDS011;53334;51.976;20.144;2023-02-15T05:54:12;4.97;;;3.10;;
36651;SDS011;53334;51.976;20.144;2023-02-15T05:56:46;5.90;;;3.70;;
36651;SDS011;53334;51.976;20.144;2023-02-15T05:59:20;6.80;;;3.72;;
36651;SDS011;53334;51.976;20.144;2023-02-15T06:01:55;6.15;;;3.53;;
36651;SDS011;53334;51.976;20.144;2023-02-15T06:04:29;4.72;;;4.00;;
36651;SDS011;53334;51.976;20.144;2023-02-15T06:07:03;4.97;;;3.17;;
36651;SDS011;53334;51.976;20.144;2023-02-15T06:09:37;4.82;;;3.72;;
36651;SDS011;53334;51.976;20.144;2023-02-15T06:14:44;5.10;;;3.75;;
36651;SDS011;53334;51.976;20.144;2023-02-15T06:19:53;3.55;;;3.25;;
36651;SDS011;53334;51.976;20.144;2023-02-15T06:25:00;5.68;;;3.63;;
36651;SDS011;53334;51.976;20.144;2023-02-15T06:27:35;5.45;;;3.58;;
36651;SDS011;53334;51.976;20.144;2023-02-15T06:30:09;4.82;;;3.70;;
36651;SDS011;53334;51.976;20.144;2023-02-15T06:32:45;4.88;;;4.35;;
36651;SDS011;53334;51.976;20.144;2023-02-15T06:35:19;6.38;;;3.72;;
36651;SDS011;53334;51.976;20.144;2023-02-15T06:37:54;5.57;;;4.45;;
36651;SDS011;53334;51.976;20.144;2023-02-15T06:40:27;7.75;;;5.05;;
36651;SDS011;53334;51.976;20.144;2023-02-15T06:43:01;8.50;;;6.05;;
36651;SDS011;53334;51.976;20.144;2023-02-15T06:45:35;5.70;;;5.15;;
36651;SDS011;53334;51.976;20.144;2023-02-15T06:50:44;9.50;;;6.95;;
36651;SDS011;53334;51.976;20.144;2023-02-15T06:55:51;12.70;;;8.70;;
36651;SDS011;53334;51.976;20.144;2023-02-15T06:58:25;8.18;;;6.75;;
36651;SDS011;53334;51.976;20.144;2023-02-15T07:03:34;6.97;;;5.65;;
36651;SDS011;53334;51.976;20.144;2023-02-15T07:06:08;11.05;;;6.65;;
36651;SDS011;53334;51.976;20.144;2023-02-15T07:08:43;9.25;;;6.43;;
36651;SDS011;53334;51.976;20.144;2023-02-15T07:14:07;11.30;;;6.70;;
36651;SDS011;53334;51.976;20.144;2023-02-15T07:16:41;7.18;;;4.97;;
36651;SDS011;53334;51.976;20.144;2023-02-15T07:21:50;11.52;;;5.93;;
36651;SDS011;53334;51.976;20.144;2023-02-15T07:24:24;8.80;;;5.55;;
36651;SDS011;53334;51.976;20.144;2023-02-15T07:26:58;9.15;;;5.85;;
36651;SDS011;53334;51.976;20.144;2023-02-15T07:29:32;7.85;;;5.00;;
36651;SDS011;53334;51.976;20.144;2023-02-15T07:34:41;8.03;;;5.10;;
36651;SDS011;53334;51.976;20.144;2023-02-15T07:37:15;9.55;;;5.35;;
36651;SDS011;53334;51.976;20.144;2023-02-15T07:42:23;6.25;;;4.90;;
36651;SDS011;53334;51.976;20.144;2023-02-15T07:44:57;5.05;;;4.50;;
36651;SDS011;53334;51.976;20.144;2023-02-15T07:50:06;13.63;;;4.88;;
36651;SDS011;53334;51.976;20.144;2023-02-15T07:52:42;8.73;;;4.95;;
36651;SDS011;53334;51.976;20.144;2023-02-15T07:55:16;9.32;;;4.25;;
36651;SDS011;53334;51.976;20.144;2023-02-15T07:57:51;4.10;;;3.67;;
36651;SDS011;53334;51.976;20.144;2023-02-15T08:00:26;7.82;;;4.32;;
36651;SDS011;53334;51.976;20.144;2023-02-15T08:03:01;5.97;;;4.30;;
36651;SDS011;53334;51.976;20.144;2023-02-15T08:05:49;10.88;;;4.40;;
36651;SDS011;53334;51.976;20.144;2023-02-15T08:08:23;4.95;;;4.05;;
36651;SDS011;53334;51.976;20.144;2023-02-15T08:11:04;6.07;;;4.40;;
36651;SDS011;53334;51.976;20.144;2023-02-15T08:13:57;10.75;;;4.78;;
36651;SDS011;53334;51.976;20.144;2023-02-15T08:16:33;5.32;;;4.03;;
36651;SDS011;53334;51.976;20.144;2023-02-15T08:19:09;8.57;;;4.00;;
36651;SDS011;53334;51.976;20.144;2023-02-15T08:21:50;6.93;;;4.00;;
36651;SDS011;53334;51.976;20.144;2023-02-15T08:24:26;5.25;;;4.03;;
36651;SDS011;53334;51.976;20.144;2023-02-15T08:27:01;8.65;;;3.33;;
36651;SDS011;53334;51.976;20.144;2023-02-15T08:29:37;5.85;;;3.92;;
36651;SDS011;53334;51.976;20.144;2023-02-15T08:32:13;9.43;;;4.55;;
36651;SDS011;53334;51.976;20.144;2023-02-15T08:34:47;15.48;;;3.92;;
36651;SDS011;53334;51.976;20.144;2023-02-15T08:37:23;12.95;;;3.72;;
36651;SDS011;53334;51.976;20.144;2023-02-15T08:39:57;7.32;;;4.38;;
36651;SDS011;53334;51.976;20.144;2023-02-15T08:42:32;8.35;;;3.95;;
36651;SDS011;53334;51.976;20.144;2023-02-15T08:45:06;10.80;;;5.07;;
36651;SDS011;53334;51.976;20.144;2023-02-15T08:47:41;9.85;;;4.65;;
36651;SDS011;53334;51.976;20.144;2023-02-15T08:50:16;9.80;;;4.55;;
36651;SDS011;53334;51.976;20.144;2023-02-15T08:52:51;8.85;;;4.68;;
36651;SDS011;53334;51.976;20.144;2023-02-15T08:55:26;9.77;;;5.35;;
36651;SDS011;53334;51.976;20.144;2023-02-15T08:58:00;13.52;;;5.88;;
36651;SDS011;53334;51.976;20.144;2023-02-15T09:00:34;17.52;;;5.10;;
36651;SDS011;53334;51.976;20.144;2023-02-15T09:03:09;9.48;;;5.35;;
36651;SDS011;53334;51.976;20.144;2023-02-15T09:05:43;7.10;;;4.95;;
36651;SDS011;53334;51.976;20.144;2023-02-15T09:08:18;6.43;;;5.50;;
36651;SDS011;53334;51.976;20.144;2023-02-15T09:10:53;8.80;;;6.22;;
36651;SDS011;53334;51.976;20.144;2023-02-15T09:13:28;12.35;;;6.50;;
36651;SDS011;53334;51.976;20.144;2023-02-15T09:16:02;14.77;;;7.30;;
36651;SDS011;53334;51.976;20.144;2023-02-15T09:18:38;13.45;;;7.18;;
36651;SDS011;53334;51.976;20.144;2023-02-15T09:21:13;11.30;;;7.95;;
36651;SDS011;53334;51.976;20.144;2023-02-15T09:23:50;10.60;;;7.28;;
36651;SDS011;53334;51.976;20.144;2023-02-15T09:26:25;10.02;;;6.72;;
36651;SDS011;53334;51.976;20.144;2023-02-15T09:29:00;9.38;;;7.45;;
36651;SDS011;53334;51.976;20.144;2023-02-15T09:31:37;13.20;;;7.68;;
36651;SDS011;53334;51.976;20.144;2023-02-15T09:34:14;11.43;;;8.02;;
36651;SDS011;53334;51.976;20.144;2023-02-15T09:36:49;12.75;;;8.95;;
36651;SDS011;53334;51.976;20.144;2023-02-15T09:39:25;14.23;;;8.55;;
36651;SDS011;53334;51.976;20.144;2023-02-15T09:48:02;16.70;;;7.25;;
36651;SDS011;53334;51.976;20.144;2023-02-15T09:50:54;16.55;;;7.70;;
36651;SDS011;53334;51.976;20.144;2023-02-15T09:53:43;15.88;;;7.50;;
36651;SDS011;53334;51.976;20.144;2023-02-15T09:56:30;16.08;;;7.00;;
36651;SDS011;53334;51.976;20.144;2023-02-15T09:59:11;7.97;;;7.03;;
36651;SDS011;53334;51.976;20.144;2023-02-15T10:01:54;11.75;;;7.50;;
36651;SDS011;53334;51.976;20.144;2023-02-15T10:04:44;16.40;;;6.45;;
36651;SDS011;53334;51.976;20.144;2023-02-15T10:07:32;10.77;;;6.05;;
36651;SDS011;53334;51.976;20.144;2023-02-15T10:10:21;12.65;;;7.30;;
36651;SDS011;53334;51.976;20.144;2023-02-15T10:15:50;11.20;;;7.15;;
36651;SDS011;53334;51.976;20.144;2023-02-15T10:18:48;14.02;;;7.32;;
36651;SDS011;53334;51.976;20.144;2023-02-15T10:21:35;14.25;;;7.88;;
36651;SDS011;53334;51.976;20.144;2023-02-15T10:24:29;14.68;;;8.43;;
36651;SDS011;53334;51.976;20.144;2023-02-15T10:27:20;11.27;;;8.45;;
36651;SDS011;53334;51.976;20.144;2023-02-15T10:29:58;9.05;;;7.78;;
36651;SDS011;53334;51.976;20.144;2023-02-15T10:32:44;9.45;;;7.13;;
36651;SDS011;53334;51.976;20.144;2023-02-15T10:35:31;12.80;;;7.55;;
36651;SDS011;53334;51.976;20.144;2023-02-15T10:38:17;15.93;;;8.15;;
36651;SDS011;53334;51.976;20.144;2023-02-15T10:41:01;11.73;;;8.32;;
36651;SDS011;53334;51.976;20.144;2023-02-15T10:43:56;11.98;;;8.68;;
36651;SDS011;53334;51.976;20.144;2023-02-15T10:46:55;14.30;;;7.28;;
36651;SDS011;53334;51.976;20.144;2023-02-15T10:49:48;34.90;;;27.88;;
36651;SDS011;53334;51.976;20.144;2023-02-15T10:52:37;44.22;;;37.65;;
36651;SDS011;53334;51.976;20.144;2023-02-15T10:55:29;47.08;;;38.47;;
36651;SDS011;53334;51.976;20.144;2023-02-15T10:58:16;35.47;;;31.80;;
36651;SDS011;53334;51.976;20.144;2023-02-15T11:00:59;21.15;;;18.60;;
36651;SDS011;53334;51.976;20.144;2023-02-15T11:03:40;27.05;;;22.60;;
36651;SDS011;53334;51.976;20.144;2023-02-15T11:06:25;24.08;;;21.40;;
36651;SDS011;53334;51.976;20.144;2023-02-15T11:09:01;23.88;;;20.67;;
36651;SDS011;53334;51.976;20.144;2023-02-15T11:11:39;20.45;;;18.30;;
36651;SDS011;53334;51.976;20.144;2023-02-15T11:14:17;23.35;;;20.35;;
36651;SDS011;53334;51.976;20.144;2023-02-15T11:16:57;24.50;;;19.55;;
36651;SDS011;53334;51.976;20.144;2023-02-15T11:19:39;21.13;;;18.38;;
36651;SDS011;53334;51.976;20.144;2023-02-15T11:22:20;20.05;;;17.23;;
36651;SDS011;53334;51.976;20.144;2023-02-15T11:24:55;20.85;;;17.65;;
36651;SDS011;53334;51.976;20.144;2023-02-15T11:27:33;23.73;;;15.60;;
36651;SDS011;53334;51.976;20.144;2023-02-15T11:30:09;19.38;;;16.15;;
36651;SDS011;53334;51.976;20.144;2023-02-15T11:32:47;21.35;;;17.35;;
36651;SDS011;53334;51.976;20.144;2023-02-15T11:35:27;17.77;;;15.75;;
36651;SDS011;53334;51.976;20.144;2023-02-15T11:38:05;20.30;;;18.15;;
36651;SDS011;53334;51.976;20.144;2023-02-15T11:40:48;24.90;;;15.65;;
36651;SDS011;53334;51.976;20.144;2023-02-15T11:43:26;21.48;;;15.43;;
36651;SDS011;53334;51.976;20.144;2023-02-15T11:46:06;18.30;;;15.63;;
36651;SDS011;53334;51.976;20.144;2023-02-15T11:48:43;15.98;;;14.32;;
36651;SDS011;53334;51.976;20.144;2023-02-15T11:51:19;19.52;;;15.05;;
36651;SDS011;53334;51.976;20.144;2023-02-15T11:53:55;20.33;;;15.57;;
36651;SDS011;53334;51.976;20.144;2023-02-15T11:56:30;26.10;;;17.27;;
36651;SDS011;53334;51.976;20.144;2023-02-15T11:59:09;24.10;;;16.23;;
36651;SDS011;53334;51.976;20.144;2023-02-15T12:01:47;21.10;;;15.15;;
36651;SDS011;53334;51.976;20.144;2023-02-15T12:06:59;21.75;;;15.20;;
36651;SDS011;53334;51.976;20.144;2023-02-15T12:09:37;19.27;;;14.32;;
36651;SDS011;53334;51.976;20.144;2023-02-15T12:12:20;21.20;;;14.02;;
36651;SDS011;53334;51.976;20.144;2023-02-15T12:14:56;16.73;;;12.63;;
36651;SDS011;53334;51.976;20.144;2023-02-15T12:17:32;24.38;;;15.02;;
36651;SDS011;53334;51.976;20.144;2023-02-15T12:20:20;26.33;;;14.55;;
36651;SDS011;53334;51.976;20.144;2023-02-15T12:23:00;20.83;;;15.35;;
36651;SDS011;53334;51.976;20.144;2023-02-15T12:25:37;27.55;;;14.00;;
36651;SDS011;53334;51.976;20.144;2023-02-15T12:28:21;14.38;;;11.60;;
36651;SDS011;53334;51.976;20.144;2023-02-15T12:30:58;17.30;;;13.27;;
36651;SDS011;53334;51.976;20.144;2023-02-15T12:33:35;16.70;;;12.32;;
36651;SDS011;53334;51.976;20.144;2023-02-15T12:36:17;19.58;;;11.15;;
36651;SDS011;53334;51.976;20.144;2023-02-15T12:39:04;18.55;;;11.18;;
36651;SDS011;53334;51.976;20.144;2023-02-15T12:44:55;19.20;;;9.43;;
36651;SDS011;53334;51.976;20.144;2023-02-15T12:47:31;19.90;;;9.27;;
36651;SDS011;53334;51.976;20.144;2023-02-15T12:50:07;12.00;;;8.25;;
36651;SDS011;53334;51.976;20.144;2023-02-15T12:52:51;14.60;;;8.40;;
36651;SDS011;53334;51.976;20.144;2023-02-15T12:55:40;12.60;;;8.45;;
36651;SDS011;53334;51.976;20.144;2023-02-15T12:58:24;9.00;;;7.03;;
36651;SDS011;53334;51.976;20.144;2023-02-15T13:03:56;13.35;;;8.30;;
36651;SDS011;53334;51.976;20.144;2023-02-15T13:06:33;9.07;;;7.43;;
36651;SDS011;53334;51.976;20.144;2023-02-15T13:09:12;10.10;;;7.32;;
36651;SDS011;53334;51.976;20.144;2023-02-15T13:11:51;10.77;;;6.47;;
36651;SDS011;53334;51.976;20.144;2023-02-15T13:14:28;10.75;;;7.00;;
36651;SDS011;53334;51.976;20.144;2023-02-15T13:17:04;11.00;;;6.45;;
36651;SDS011;53334;51.976;20.144;2023-02-15T13:19:40;9.65;;;6.95;;
36651;SDS011;53334;51.976;20.144;2023-02-15T13:22:16;7.47;;;6.47;;
36651;SDS011;53334;51.976;20.144;2023-02-15T13:24:54;7.90;;;5.32;;
36651;SDS011;53334;51.976;20.144;2023-02-15T13:27:34;9.82;;;6.15;;
36651;SDS011;53334;51.976;20.144;2023-02-15T13:30:14;8.48;;;6.43;;
36651;SDS011;53334;51.976;20.144;2023-02-15T13:32:56;9.15;;;6.85;;
36651;SDS011;53334;51.976;20.144;2023-02-15T13:35:35;6.28;;;5.15;;
36651;SDS011;53334;51.976;20.144;2023-02-15T13:38:19;8.75;;;6.13;;
36651;SDS011;53334;51.976;20.144;2023-02-15T13:41:11;11.90;;;5.38;;
36651;SDS011;53334;51.976;20.144;2023-02-15T13:43:52;10.73;;;5.32;;
36651;SDS011;53334;51.976;20.144;2023-02-15T13:49:39;14.57;;;5.18;;
36651;SDS011;53334;51.976;20.144;2023-02-15T13:52:24;5.95;;;4.30;;
36651;SDS011;53334;51.976;20.144;2023-02-15T13:55:03;9.13;;;5.68;;
36651;SDS011;53334;51.976;20.144;2023-02-15T13:58:05;7.30;;;5.38;;
36651;SDS011;53334;51.976;20.144;2023-02-15T14:03:58;7.05;;;5.47;;
36651;SDS011;53334;51.976;20.144;2023-02-15T14:07:09;7.18;;;5.55;;
36651;SDS011;53334;51.976;20.144;2023-02-15T14:09:54;6.57;;;5.88;;
36651;SDS011;53334;51.976;20.144;2023-02-15T14:12:39;6.57;;;5.60;;
36651;SDS011;53334;51.976;20.144;2023-02-15T14:15:28;17.02;;;5.60;;
36651;SDS011;53334;51.976;20.144;2023-02-15T14:18:15;6.77;;;4.70;;
36651;SDS011;53334;51.976;20.144;2023-02-15T14:21:00;8.50;;;5.35;;
36651;SDS011;53334;51.976;20.144;2023-02-15T14:23:46;10.63;;;6.40;;
36651;SDS011;53334;51.976;20.144;2023-02-15T14:26:35;8.98;;;5.47;;
36651;SDS011;53334;51.976;20.144;2023-02-15T14:29:19;6.65;;;4.88;;
36651;SDS011;53334;51.976;20.144;2023-02-15T14:32:03;7.07;;;5.40;;
36651;SDS011;53334;51.976;20.144;2023-02-15T14:34:44;9.73;;;5.75;;
36651;SDS011;53334;51.976;20.144;2023-02-15T14:37:24;10.82;;;5.65;;
36651;SDS011;53334;51.976;20.144;2023-02-15T14:40:05;7.22;;;5.05;;
36651;SDS011;53334;51.976;20.144;2023-02-15T14:43:05;8.45;;;5.32;;
36651;SDS011;53334;51.976;20.144;2023-02-15T14:45:47;6.75;;;5.13;;
36651;SDS011;53334;51.976;20.144;2023-02-15T14:48:24;8.63;;;5.20;;
36651;SDS011;53334;51.976;20.144;2023-02-15T14:51:04;10.05;;;5.22;;
36651;SDS011;53334;51.976;20.144;2023-02-15T14:53:38;11.68;;;6.20;;
36651;SDS011;53334;51.976;20.144;2023-02-15T14:56:16;6.97;;;5.07;;
36651;SDS011;53334;51.976;20.144;2023-02-15T15:01:52;4.90;;;4.35;;
36651;SDS011;53334;51.976;20.144;2023-02-15T15:04:31;5.97;;;4.78;;
36651;SDS011;53334;51.976;20.144;2023-02-15T15:07:12;6.47;;;5.30;;
36651;SDS011;53334;51.976;20.144;2023-02-15T15:09:58;11.20;;;5.38;;
36651;SDS011;53334;51.976;20.144;2023-02-15T15:12:36;6.23;;;5.47;;
36651;SDS011;53334;51.976;20.144;2023-02-15T15:15:12;7.13;;;4.55;;
36651;SDS011;53334;51.976;20.144;2023-02-15T15:18:05;6.07;;;5.43;;
36651;SDS011;53334;51.976;20.144;2023-02-15T15:20:44;6.15;;;4.68;;
36651;SDS011;53334;51.976;20.144;2023-02-15T15:23:40;10.15;;;4.72;;
36651;SDS011;53334;51.976;20.144;2023-02-15T15:26:23;12.93;;;5.00;;
36651;SDS011;53334;51.976;20.144;2023-02-15T15:29:03;7.05;;;4.97;;
36651;SDS011;53334;51.976;20.144;2023-02-15T15:31:47;16.60;;;5.63;;
36651;SDS011;53334;51.976;20.144;2023-02-15T15:34:35;8.57;;;5.07;;
36651;SDS011;53334;51.976;20.144;2023-02-15T15:37:46;7.95;;;5.32;;
36651;SDS011;53334;51.976;20.144;2023-02-15T15:40:51;7.78;;;4.88;;
36651;SDS011;53334;51.976;20.144;2023-02-15T15:44:00;8.23;;;4.65;;
36651;SDS011;53334;51.976;20.144;2023-02-15T15:47:10;10.45;;;5.88;;
36651;SDS011;53334;51.976;20.144;2023-02-15T15:50:11;8.07;;;4.95;;
36651;SDS011;53334;51.976;20.144;2023-02-15T15:52:48;9.52;;;5.88;;
36651;SDS011;53334;51.976;20.144;2023-02-15T15:55:27;14.40;;;6.45;;
36651;SDS011;53334;51.976;20.144;2023-02-15T15:58:05;11.60;;;5.95;;
36651;SDS011;53334;51.976;20.144;2023-02-15T16:00:41;17.77;;;6.47;;
36651;SDS011;53334;51.976;20.144;2023-02-15T16:03:21;20.45;;;5.63;;
36651;SDS011;53334;51.976;20.144;2023-02-15T16:05:56;11.48;;;6.00;;
36651;SDS011;53334;51.976;20.144;2023-02-15T16:08:34;13.73;;;6.05;;
36651;SDS011;53334;51.976;20.144;2023-02-15T16:11:10;17.58;;;5.63;;
36651;SDS011;53334;51.976;20.144;2023-02-15T16:13:50;26.73;;;6.40;;
36651;SDS011;53334;51.976;20.144;2023-02-15T16:16:25;20.45;;;6.43;;
36651;SDS011;53334;51.976;20.144;2023-02-15T16:19:02;11.13;;;5.88;;
36651;SDS011;53334;51.976;20.144;2023-02-15T16:21:37;18.17;;;5.82;;
36651;SDS011;53334;51.976;20.144;2023-02-15T16:24:16;11.70;;;5.97;;
36651;SDS011;53334;51.976;20.144;2023-02-15T16:27:26;13.05;;;5.90;;
36651;SDS011;53334;51.976;20.144;2023-02-15T16:30:25;9.70;;;5.30;;
36651;SDS011;53334;51.976;20.144;2023-02-15T16:33:05;11.13;;;5.03;;
36651;SDS011;53334;51.976;20.144;2023-02-15T16:35:41;11.98;;;5.68;;
36651;SDS011;53334;51.976;20.144;2023-02-15T16:38:38;12.45;;;5.43;;
36651;SDS011;53334;51.976;20.144;2023-02-15T16:41:40;13.27;;;6.25;;
36651;SDS011;53334;51.976;20.144;2023-02-15T16:44:18;14.13;;;6.40;;
36651;SDS011;53334;51.976;20.144;2023-02-15T16:46:55;26.15;;;16.40;;
36651;SDS011;53334;51.976;20.144;2023-02-15T16:49:30;16.88;;;11.05;;
36651;SDS011;53334;51.976;20.144;2023-02-15T16:52:07;29.85;;;13.73;;
36651;SDS011;53334;51.976;20.144;2023-02-15T16:54:50;23.95;;;14.77;;
36651;SDS011;53334;51.976;20.144;2023-02-15T16:57:29;11.93;;;10.60;;
36651;SDS011;53334;51.976;20.144;2023-02-15T17:00:16;23.85;;;15.57;;
36651;SDS011;53334;51.976;20.144;2023-02-15T17:02:59;24.10;;;15.38;;
36651;SDS011;53334;51.976;20.144;2023-02-15T17:05:40;23.25;;;14.55;;
36651;SDS011;53334;51.976;20.144;2023-02-15T17:08:16;21.75;;;16.27;;
36651;SDS011;53334;51.976;20.144;2023-02-15T17:11:04;26.00;;;16.27;;
36651;SDS011;53334;51.976;20.144;2023-02-15T17:16:48;17.48;;;14.13;;
36651;SDS011;53334;51.976;20.144;2023-02-15T17:19:28;20.45;;;13.75;;
36651;SDS011;53334;51.976;20.144;2023-02-15T17:22:05;21.38;;;13.65;;
36651;SDS011;53334;51.976;20.144;2023-02-15T17:24:41;28.55;;;14.57;;
36651;SDS011;53334;51.976;20.144;2023-02-15T17:27:18;18.85;;;12.05;;
36651;SDS011;53334;51.976;20.144;2023-02-15T17:29:57;18.60;;;12.63;;
36651;SDS011;53334;51.976;20.144;2023-02-15T17:32:35;14.10;;;11.13;;
36651;SDS011;53334;51.976;20.144;2023-02-15T17:35:16;17.98;;;11.25;;
36651;SDS011;53334;51.976;20.144;2023-02-15T17:38:00;14.75;;;11.02;;
36651;SDS011;53334;51.976;20.144;2023-02-15T17:43:11;20.40;;;11.93;;
36651;SDS011;53334;51.976;20.144;2023-02-15T17:45:46;12.80;;;11.20;;
36651;SDS011;53334;51.976;20.144;2023-02-15T17:48:22;14.45;;;10.68;;
36651;SDS011;53334;51.976;20.144;2023-02-15T17:51:05;15.05;;;11.63;;
36651;SDS011;53334;51.976;20.144;2023-02-15T17:53:44;19.27;;;11.32;;
36651;SDS011;53334;51.976;20.144;2023-02-15T17:56:34;17.42;;;10.60;;
36651;SDS011;53334;51.976;20.144;2023-02-15T17:59:10;17.88;;;10.75;;
36651;SDS011;53334;51.976;20.144;2023-02-15T18:01:46;13.05;;;10.45;;
36651;SDS011;53334;51.976;20.144;2023-02-15T18:04:40;18.73;;;11.48;;
36651;SDS011;53334;51.976;20.144;2023-02-15T18:07:33;15.57;;;11.35;;
36651;SDS011;53334;51.976;20.144;2023-02-15T18:10:25;18.42;;;10.00;;
36651;SDS011;53334;51.976;20.144;2023-02-15T18:13:16;26.08;;;10.65;;
36651;SDS011;53334;51.976;20.144;2023-02-15T18:15:51;15.18;;;10.57;;
36651;SDS011;53334;51.976;20.144;2023-02-15T18:18:25;19.15;;;11.35;;
36651;SDS011;53334;51.976;20.144;2023-02-15T18:21:00;14.13;;;10.18;;
36651;SDS011;53334;51.976;20.144;2023-02-15T18:23:36;14.70;;;10.30;;
36651;SDS011;53334;51.976;20.144;2023-02-15T18:26:11;21.95;;;9.55;;
36651;SDS011;53334;51.976;20.144;2023-02-15T18:28:51;11.93;;;9.63;;
36651;SDS011;53334;51.976;20.144;2023-02-15T18:31:25;10.95;;;8.52;;
36651;SDS011;53334;51.976;20.144;2023-02-15T18:34:00;13.07;;;8.88;;